Latest Weather Observations for Point Fawcett

IDD60801

Issued at 6:01 pm CST Friday 26 August 2016 (issued every 30 minutes, with the page automatically refreshed every 10 minutes)

About weather observations | Map of weather stations | Latest weather observations for NT | Other Formats
Station Details ID: 200731 Name: POINT FAWCETT Lat: -11.76 Lon: 130.03 Height: 6.5 m
Data from the previous 72 hours. | See also: Recent months at Point Fawcett
Date/Time
CST
Temp
°C
App
Temp
°C
Dew
Point
°C
Rel
Hum
%
Delta-T
°C
Wind Press
QNH
hPa
Press
MSL
hPa
Rain since
9am
mm
Dir  Spd
km/h
Gust
km/h
Spd
kts
Gust
kts
26/06:00pm 30.6 34.0 23.3 65 5.0 SSE 11 17 6 9 1011.1 1011.1 0.0
26/05:30pm 31.6 34.8 22.3 57 6.3 ENE 9 17 5 9 1010.7 - 0.0
26/05:00pm 31.7 34.6 23.2 60 5.9 N 13 20 7 11 1010.3 - 0.0
26/04:30pm 32.3 35.9 23.8 61 5.9 NNW 11 15 6 8 1010.4 - 0.0
26/04:00pm 31.2 34.8 23.8 64 5.1 W 11 15 6 8 1010.5 - 0.0
26/03:30pm 31.1 34.0 23.2 63 5.4 WSW 13 19 7 10 1010.7 - 0.0
26/03:00pm 32.5 35.9 23.4 58 6.3 W 11 20 6 11 1010.8 1010.8 0.0
26/02:30pm 32.5 36.3 24.0 61 5.9 NNW 11 17 6 9 1011.2 - 0.0
26/02:00pm 30.3 32.1 22.5 63 5.3 NNW 17 22 9 12 1011.5 - 0.0
26/01:30pm 33.8 36.4 21.2 47 8.5 SE 9 15 5 8 1011.5 - 0.0
26/01:00pm 34.4 37.0 20.4 44 9.4 ESE 7 13 4 7 1011.8 - 0.0
26/12:30pm 34.2 35.7 19.8 42 9.6 ENE 11 19 6 10 1012.1 - 0.0
26/12:00pm 32.2 31.8 18.8 45 8.7 E 19 24 10 13 1012.4 1012.4 0.0
26/11:30am 32.1 32.5 19.0 45 8.5 ESE 15 28 8 15 1012.8 - 0.0
26/11:00am 30.2 30.8 18.6 49 7.5 SE 13 24 7 13 1013.1 - 0.0
26/10:30am 31.0 31.3 18.7 48 8.0 ESE 15 26 8 14 1013.2 - 0.0
26/10:00am 30.6 30.9 18.7 49 7.7 ESE 15 28 8 15 1013.3 - 0.0
26/09:30am 29.3 28.4 18.1 51 7.2 ESE 20 33 11 18 1013.2 - 0.0
26/09:00am 28.8 28.0 17.0 49 7.4 SE 17 32 9 17 1013.1 1013.1 0.0
26/08:30am 28.4 27.9 17.0 50 7.1 SE 15 30 8 16 1013.0 - 0.0
26/08:00am 27.1 27.1 17.3 55 6.1 SE 13 26 7 14 1012.8 - 0.0
26/07:30am 26.7 27.8 18.0 59 5.5 SSE 9 15 5 8 1012.5 - 0.0
26/07:00am 26.7 27.0 16.9 55 6.1 SSE 11 24 6 13 1012.2 - 0.0
26/06:30am 27.3 28.1 17.2 54 6.3 SSE 9 20 5 11 1012.0 - 0.0
26/06:00am 27.5 28.7 18.2 57 5.9 S 9 19 5 10 1011.8 1011.8 0.0
26/05:30am 27.5 28.6 18.8 59 5.6 S 11 24 6 13 1011.6 - 0.0
26/05:00am 27.2 29.6 20.8 68 4.2 S 9 15 5 8 1011.3 - 0.0
26/04:30am 27.0 30.0 22.0 74 3.4 S 9 17 5 9 1011.4 - 0.0
26/04:00am 26.9 30.1 21.6 72 3.5 S 7 15 4 8 1011.3 - 0.0
26/03:30am 26.5 29.3 21.5 74 3.3 SSW 9 13 5 7 1011.1 - 0.0
26/03:00am 25.8 28.0 21.2 76 3.0 SSW 11 19 6 10 1011.1 1011.1 0.0
26/02:30am 25.3 27.4 21.0 77 2.8 SSW 11 17 6 9 1011.1 - 0.0
26/02:00am 25.5 27.7 21.2 77 2.8 SSW 11 17 6 9 1011.2 - 0.0
26/01:30am 26.0 28.1 21.7 77 2.9 SSW 13 20 7 11 1011.4 - 0.0
26/01:00am 25.7 28.0 21.4 77 2.8 SSW 11 17 6 9 1011.5 - 0.0
26/12:30am 26.0 27.8 21.2 75 3.2 SSW 13 19 7 10 1011.7 - 0.0
26/12:00am 25.6 27.2 20.8 75 3.2 SSW 13 19 7 10 1011.9 1011.9 0.0
 
Date/Time
CST
Temp
°C
App
Temp
°C
Dew
Point
°C
Rel
Hum
%
Delta-T
°C
Wind Press
QNH
hPa
Press
MSL
hPa
Rain since
9am
mm
Dir  Spd
km/h
Gust
km/h
Spd
kts
Gust
kts
25/11:30pm 25.2 27.4 20.5 75 3.1 SSW 9 15 5 8 1011.8 - 0.0
25/11:00pm 25.3 27.1 20.3 74 3.3 SSW 11 17 6 9 1011.7 - 0.0
25/10:30pm 24.8 26.5 20.1 75 3.0 SSW 11 17 6 9 1011.8 - 0.0
25/10:00pm 22.8 24.1 19.4 81 2.2 SSW 11 15 6 8 1011.7 - 0.0
25/09:30pm 21.4 22.4 17.8 80 2.2 SSW 9 11 5 6 1011.6 - 0.0
25/09:00pm 21.7 23.2 17.7 78 2.5 S 6 7 3 4 1011.2 1011.2 0.0
25/08:30pm 22.2 23.4 17.3 74 3.0 S 7 9 4 5 1010.9 - 0.0
25/08:00pm 23.0 24.3 17.5 71 3.4 S 7 9 4 5 1010.7 - 0.0
25/07:30pm 24.5 26.0 17.5 65 4.4 S 6 7 3 4 1010.4 - 0.0
25/07:00pm 26.4 28.0 18.3 61 5.1 SSW 7 11 4 6 1010.2 - 0.0
25/06:30pm 28.0 29.1 18.1 55 6.3 SSW 9 13 5 7 1009.9 - 0.0
25/06:00pm 28.9 29.5 17.7 50 7.1 SSW 11 20 6 11 1009.6 1009.6 0.0
25/05:30pm 29.4 30.0 18.5 52 7.0 SSW 13 22 7 12 1009.3 - 0.0
25/05:00pm 30.3 31.0 19.6 52 7.0 SSW 15 20 8 11 1009.1 - 0.0
25/04:30pm 30.3 31.6 20.8 56 6.3 SSW 15 20 8 11 1008.9 - 0.0
25/04:00pm 30.0 30.9 20.8 57 6.1 SSW 17 24 9 13 1008.8 - 0.0
25/03:30pm 31.0 32.5 21.2 56 6.6 SW 15 22 8 12 1008.9 - 0.0
25/03:00pm 30.2 31.7 21.3 59 6.0 SSW 15 22 8 12 1009.1 1009.1 0.0
25/02:30pm 31.3 32.8 21.2 55 6.8 SW 15 26 8 14 1009.5 - 0.0
25/02:00pm 31.5 32.9 20.4 51 7.4 SSW 13 20 7 11 1009.8 - 0.0
25/01:30pm 31.7 33.7 21.5 54 6.9 SSW 13 20 7 11 1010.2 - 0.0
25/01:00pm 31.1 33.4 21.3 56 6.6 S 11 22 6 12 1010.7 - 0.0
25/12:30pm 29.9 32.2 22.1 63 5.3 S 13 22 7 12 1011.0 - 0.0
25/12:00pm 30.0 32.1 21.7 61 5.6 S 13 33 7 18 1011.4 1011.4 0.0
25/11:30am 30.9 31.9 21.1 56 6.6 SSW 17 28 9 15 1011.6 - 0.0
25/11:00am 30.6 31.9 20.8 56 6.5 SSW 15 20 8 11 1011.8 - 0.0
25/10:30am 30.4 31.7 20.9 57 6.3 SW 15 20 8 11 1012.0 - 0.0
25/10:00am 30.1 32.3 21.2 59 6.0 SW 11 19 6 10 1012.0 - 0.0
25/09:30am 29.8 32.3 21.7 61 5.5 SSW 11 17 6 9 1011.9 - 0.0
25/09:00am 29.0 31.8 21.5 64 5.0 SW 9 15 5 8 1011.7 1011.7 0.0
25/08:30am 27.9 31.1 22.4 72 3.7 SSW 9 13 5 7 1011.5 - 0.0
25/08:00am 24.6 28.7 23.2 92 0.9 S 7 11 4 6 1011.2 - 0.0
25/07:30am 22.2 25.3 21.0 93 0.8 S 6 7 3 4 1010.9 - 0.0
25/07:00am 22.5 26.7 21.0 91 1.0 CALM 0 0 0 0 1010.6 - 0.0
25/06:30am 23.2 27.7 21.5 90 1.1 CALM 0 0 0 0 1010.1 - 0.0
25/06:00am 23.2 27.7 21.5 90 1.1 CALM 0 0 0 0 1009.8 1009.8 0.0
25/05:30am 22.9 27.1 21.0 89 1.2 CALM 0 0 0 0 1009.6 - 0.0
25/05:00am 23.1 27.1 21.4 90 1.1 SSW 2 7 1 4 1009.2 - 0.0
25/04:30am 22.7 26.9 21.0 90 1.1 CALM 0 0 0 0 1009.0 - 0.0
25/04:00am 22.2 26.0 20.1 88 1.4 CALM 0 0 0 0 1009.1 - 0.0
25/03:30am 22.4 26.1 19.9 86 1.6 CALM 0 0 0 0 1009.2 - 0.0
25/03:00am 23.1 26.9 20.2 84 1.9 CALM 0 0 0 0 1009.4 1009.4 0.0
25/02:30am 23.5 27.4 20.4 83 2.0 CALM 0 0 0 0 1009.6 - 0.0
25/02:00am 24.2 28.2 20.5 80 2.4 CALM 0 0 0 0 1009.7 - 0.0
25/01:30am 24.9 28.9 20.6 77 2.8 CALM 0 0 0 0 1010.1 - 0.0
25/01:00am 25.7 29.9 20.9 75 3.2 CALM 0 6 0 3 1010.5 - 0.0
25/12:30am 26.6 29.5 21.1 72 3.6 SSW 7 11 4 6 1010.8 - 0.0
25/12:00am 27.0 29.8 21.5 72 3.7 SW 9 13 5 7 1011.0 1011.0 0.0
 
Date/Time
CST
Temp
°C
App
Temp
°C
Dew
Point
°C
Rel
Hum
%
Delta-T
°C
Wind Press
QNH
hPa
Press
MSL
hPa
Rain since
9am
mm
Dir  Spd
km/h
Gust
km/h
Spd
kts
Gust
kts
24/11:30pm 27.0 29.4 21.5 72 3.7 SW 11 13 6 7 1011.0 - 0.0
24/11:00pm 27.0 29.8 21.5 72 3.7 SSW 9 15 5 8 1011.1 - 0.0
24/10:30pm 26.7 29.5 21.5 73 3.5 SSW 9 13 5 7 1010.8 - 0.0
24/10:00pm 26.9 29.2 21.4 72 3.7 SSW 11 20 6 11 1010.8 - 0.0
24/09:30pm 27.0 29.8 21.5 72 3.7 SSW 9 15 5 8 1010.7 - 0.0
24/09:00pm 27.2 30.1 21.7 72 3.7 SSW 9 15 5 8 1010.4 1010.4 0.0
24/08:30pm 27.2 29.7 21.0 69 4.1 SSW 9 15 5 8 1010.0 - 0.0
24/08:00pm 27.3 29.7 20.9 68 4.2 SSW 9 17 5 9 1009.8 - 0.0
24/07:30pm 27.5 29.0 20.6 66 4.5 SSW 13 20 7 11 1009.5 - 0.0
24/07:00pm 27.7 29.0 20.8 66 4.6 SW 15 20 8 11 1009.3 - 0.0
24/06:30pm 27.9 29.4 20.5 64 4.9 SW 13 20 7 11 1009.0 - 0.0
24/06:00pm 28.5 29.6 20.5 62 5.3 SW 15 20 8 11 1008.7 1008.7 0.0
24/05:30pm 29.5 30.0 20.1 57 6.2 SW 17 22 9 12 1008.6 - 0.0
24/05:00pm 30.0 31.1 20.5 56 6.3 SW 15 24 8 13 1008.3 - 0.0
24/04:30pm 30.1 30.9 20.6 56 6.3 SW 17 24 9 13 1008.0 - 0.0
24/04:00pm 30.7 31.2 20.0 52 7.1 SW 17 24 9 13 1007.9 - 0.0
24/03:30pm 30.9 32.0 20.5 54 6.9 SW 15 22 8 12 1008.1 - 0.0
24/03:00pm 31.2 32.5 20.2 52 7.3 WSW 13 19 7 10 1008.4 1008.4 0.0
24/02:30pm 31.1 32.1 19.4 49 7.7 WSW 13 20 7 11 1008.8 - 0.0
24/02:00pm 31.4 32.6 20.0 50 7.5 W 13 17 7 9 1009.1 - 0.0
24/01:30pm 30.2 31.3 19.6 53 6.9 W 13 17 7 9 1009.5 - 0.0
24/01:00pm 30.1 32.0 19.8 54 6.8 W 9 13 5 7 1009.7 - 0.0
24/12:30pm 29.6 31.1 19.0 53 6.9 W 9 13 5 7 1010.2 - 0.0
24/12:00pm 30.4 32.5 20.9 57 6.3 WNW 11 15 6 8 1010.8 1010.8 0.0
24/11:30am 29.5 32.2 21.4 61 5.4 NW 9 11 5 6 1011.1 - 0.0
24/11:00am 30.0 32.7 21.4 60 5.8 NNW 9 13 5 7 1011.5 - 0.0
24/10:30am 29.5 32.3 20.9 60 5.7 N 7 11 4 6 1011.6 - 0.0
24/10:00am 29.4 33.0 22.4 66 4.7 N 7 11 4 6 1011.9 - 0.0
24/09:30am 28.2 31.9 22.2 70 4.0 NNW 6 7 3 4 1011.7 - 0.0
24/09:00am 27.6 32.6 22.5 74 3.5 CALM 0 6 0 3 1011.7 1011.7 0.0
24/08:30am 25.4 31.2 24.0 92 1.0 CALM 0 0 0 0 1011.6 - 0.0
24/08:00am 23.6 29.2 23.6 100 0.0 CALM 0 0 0 0 1011.5 - 0.0
24/07:30am 20.9 24.2 20.7 99 0.1 S 4 6 2 3 1011.2 - 0.0
24/07:00am 20.1 22.5 19.6 97 0.3 S 6 7 3 4 1010.9 - 0.0
24/06:30am 20.3 22.7 19.6 96 0.4 S 6 7 3 4 1010.6 - 0.0
24/06:00am 20.7 23.0 19.9 95 0.5 S 7 7 4 4 1010.3 1010.3 0.0
24/05:30am 21.2 23.8 20.4 95 0.5 S 7 7 4 4 1010.3 - 0.0
24/05:00am 21.6 24.4 20.9 96 0.5 S 7 7 4 4 1009.9 - 0.0
24/04:30am 21.6 24.6 20.9 96 0.5 S 6 7 3 4 1009.9 - 0.0
24/04:00am 21.0 23.4 20.0 94 0.6 S 7 9 4 5 1009.7 - 0.0
24/03:30am 21.3 23.9 20.5 95 0.5 S 7 9 4 5 1009.6 - 0.0
24/03:00am 21.2 23.8 20.0 93 0.8 S 6 7 3 4 1009.6 1009.6 0.0
24/02:30am 21.0 23.4 19.6 92 0.9 S 6 7 3 4 1009.6 - 0.0
24/02:00am 21.5 24.0 19.8 90 1.1 S 6 7 3 4 1009.7 - 0.0
24/01:30am 22.3 25.1 20.4 89 1.2 S 6 7 3 4 1009.8 - 0.0
24/01:00am 22.6 26.1 21.1 91 1.0 W 4 7 2 4 1009.8 - 0.0
24/12:30am 21.9 25.6 20.0 89 1.2 CALM 0 0 0 0 1009.7 - 0.0
24/12:00am 21.9 25.5 19.8 88 1.3 CALM 0 0 0 0 1009.9 1009.9 0.0
 
Date/Time
CST
Temp
°C
App
Temp
°C
Dew
Point
°C
Rel
Hum
%
Delta-T
°C
Wind Press
QNH
hPa
Press
MSL
hPa
Rain since
9am
mm
Dir  Spd
km/h
Gust
km/h
Spd
kts
Gust
kts
23/11:30pm 22.0 25.6 19.7 87 1.5 CALM 0 0 0 0 1009.7 - 0.0
23/11:00pm 22.4 25.6 19.8 85 1.7 W 2 7 1 4 1009.8 - 0.0
23/10:30pm 23.0 25.6 20.0 83 1.9 W 6 9 3 5 1009.8 - 0.0
23/10:00pm 23.0 26.1 19.6 81 2.2 WSW 2 6 1 3 1009.9 - 0.0
23/09:30pm 23.7 25.6 19.0 75 3.0 W 7 11 4 6 1009.9 - 0.0
23/09:00pm 26.2 28.3 21.0 73 3.4 W 11 15 6 8 1009.7 1009.7 0.0
23/08:30pm 26.6 28.4 21.1 72 3.6 W 13 15 7 8 1009.4 - 0.0
23/08:00pm 26.5 28.8 21.3 73 3.4 WNW 11 13 6 7 1009.0 - 0.0
23/07:30pm 26.7 28.5 21.2 72 3.6 WNW 13 15 7 8 1008.8 - 0.0
23/07:00pm 26.9 28.9 20.7 69 4.1 WNW 11 15 6 8 1008.4 - 0.0
23/06:30pm 27.6 29.6 20.7 66 4.6 WNW 11 13 6 7 1008.1 - 0.0

Other Formats:

Comma delimited format used in spreadsheet applications
http://www.bom.gov.au/fwo/IDD60801/IDD60801.94122.axf

JavaScript Object Notation format (JSON) in row-major order
http://www.bom.gov.au/fwo/IDD60801/IDD60801.94122.json